sensor_id;sensor_type;location;lat;lon;timestamp;P1;durP1;ratioP1;P2;durP2;ratioP2
26319;SDS011;14024;52.226;5.200;2024-02-28T00:00:00;45.03;;;21.50;;
26319;SDS011;14024;52.226;5.200;2024-02-28T00:02:25;44.60;;;21.75;;
26319;SDS011;14024;52.226;5.200;2024-02-28T00:04:51;49.60;;;20.90;;
26319;SDS011;14024;52.226;5.200;2024-02-28T00:07:16;47.20;;;20.23;;
26319;SDS011;14024;52.226;5.200;2024-02-28T00:09:43;48.10;;;21.88;;
26319;SDS011;14024;52.226;5.200;2024-02-28T00:12:09;42.55;;;20.92;;
26319;SDS011;14024;52.226;5.200;2024-02-28T00:14:34;46.22;;;21.10;;
26319;SDS011;14024;52.226;5.200;2024-02-28T00:17:00;50.58;;;22.70;;
26319;SDS011;14024;52.226;5.200;2024-02-28T00:19:25;50.60;;;23.73;;
26319;SDS011;14024;52.226;5.200;2024-02-28T00:21:50;45.60;;;20.65;;
26319;SDS011;14024;52.226;5.200;2024-02-28T00:24:16;50.15;;;22.38;;
26319;SDS011;14024;52.226;5.200;2024-02-28T00:26:42;44.72;;;21.13;;
26319;SDS011;14024;52.226;5.200;2024-02-28T00:29:08;45.63;;;22.95;;
26319;SDS011;14024;52.226;5.200;2024-02-28T00:31:34;51.03;;;23.10;;
26319;SDS011;14024;52.226;5.200;2024-02-28T00:33:59;52.33;;;23.92;;
26319;SDS011;14024;52.226;5.200;2024-02-28T00:36:25;54.80;;;25.13;;
26319;SDS011;14024;52.226;5.200;2024-02-28T00:38:50;56.78;;;24.92;;
26319;SDS011;14024;52.226;5.200;2024-02-28T00:41:16;51.15;;;23.08;;
26319;SDS011;14024;52.226;5.200;2024-02-28T00:43:41;56.47;;;24.42;;
26319;SDS011;14024;52.226;5.200;2024-02-28T00:46:06;48.80;;;22.77;;
26319;SDS011;14024;52.226;5.200;2024-02-28T00:48:36;54.78;;;23.33;;
26319;SDS011;14024;52.226;5.200;2024-02-28T00:51:02;55.38;;;23.58;;
26319;SDS011;14024;52.226;5.200;2024-02-28T00:53:28;53.15;;;23.83;;
26319;SDS011;14024;52.226;5.200;2024-02-28T00:55:54;54.22;;;23.42;;
26319;SDS011;14024;52.226;5.200;2024-02-28T00:58:20;53.10;;;23.83;;
26319;SDS011;14024;52.226;5.200;2024-02-28T01:00:46;52.58;;;24.10;;
26319;SDS011;14024;52.226;5.200;2024-02-28T01:03:12;52.58;;;24.15;;
26319;SDS011;14024;52.226;5.200;2024-02-28T01:05:39;54.55;;;24.33;;
26319;SDS011;14024;52.226;5.200;2024-02-28T01:08:05;52.47;;;23.58;;
26319;SDS011;14024;52.226;5.200;2024-02-28T01:10:31;58.00;;;25.80;;
26319;SDS011;14024;52.226;5.200;2024-02-28T01:12:56;56.72;;;24.95;;
26319;SDS011;14024;52.226;5.200;2024-02-28T01:15:23;59.15;;;25.45;;
26319;SDS011;14024;52.226;5.200;2024-02-28T01:17:48;50.10;;;23.30;;
26319;SDS011;14024;52.226;5.200;2024-02-28T01:20:14;58.10;;;24.38;;
26319;SDS011;14024;52.226;5.200;2024-02-28T01:22:39;58.78;;;25.00;;
26319;SDS011;14024;52.226;5.200;2024-02-28T01:25:05;60.92;;;25.45;;
26319;SDS011;14024;52.226;5.200;2024-02-28T01:27:31;59.05;;;25.92;;
26319;SDS011;14024;52.226;5.200;2024-02-28T01:29:57;60.13;;;25.10;;
26319;SDS011;14024;52.226;5.200;2024-02-28T01:32:23;62.83;;;25.80;;
26319;SDS011;14024;52.226;5.200;2024-02-28T01:34:48;60.17;;;25.35;;
26319;SDS011;14024;52.226;5.200;2024-02-28T01:37:14;62.95;;;26.67;;
26319;SDS011;14024;52.226;5.200;2024-02-28T01:39:39;57.47;;;24.17;;
26319;SDS011;14024;52.226;5.200;2024-02-28T01:42:05;56.22;;;25.58;;
26319;SDS011;14024;52.226;5.200;2024-02-28T01:44:30;60.85;;;24.20;;
26319;SDS011;14024;52.226;5.200;2024-02-28T01:46:56;63.35;;;25.13;;
26319;SDS011;14024;52.226;5.200;2024-02-28T01:49:23;59.97;;;24.30;;
26319;SDS011;14024;52.226;5.200;2024-02-28T01:51:49;59.33;;;24.52;;
26319;SDS011;14024;52.226;5.200;2024-02-28T01:54:16;59.22;;;26.88;;
26319;SDS011;14024;52.226;5.200;2024-02-28T01:56:43;53.67;;;24.73;;
26319;SDS011;14024;52.226;5.200;2024-02-28T01:59:08;58.00;;;25.30;;
26319;SDS011;14024;52.226;5.200;2024-02-28T02:01:36;59.38;;;25.17;;
26319;SDS011;14024;52.226;5.200;2024-02-28T02:04:03;57.50;;;24.88;;
26319;SDS011;14024;52.226;5.200;2024-02-28T02:06:29;56.92;;;23.77;;
26319;SDS011;14024;52.226;5.200;2024-02-28T02:08:56;54.63;;;24.67;;
26319;SDS011;14024;52.226;5.200;2024-02-28T02:11:21;54.30;;;24.63;;
26319;SDS011;14024;52.226;5.200;2024-02-28T02:13:48;54.25;;;25.63;;
26319;SDS011;14024;52.226;5.200;2024-02-28T02:16:18;56.42;;;25.58;;
26319;SDS011;14024;52.226;5.200;2024-02-28T02:18:44;59.30;;;26.27;;
26319;SDS011;14024;52.226;5.200;2024-02-28T02:21:09;58.55;;;25.23;;
26319;SDS011;14024;52.226;5.200;2024-02-28T02:23:37;58.20;;;26.27;;
26319;SDS011;14024;52.226;5.200;2024-02-28T02:26:06;52.08;;;23.85;;
26319;SDS011;14024;52.226;5.200;2024-02-28T02:28:34;52.55;;;23.38;;
26319;SDS011;14024;52.226;5.200;2024-02-28T02:31:00;50.40;;;22.92;;
26319;SDS011;14024;52.226;5.200;2024-02-28T02:33:26;53.33;;;23.67;;
26319;SDS011;14024;52.226;5.200;2024-02-28T02:35:52;51.03;;;23.73;;
26319;SDS011;14024;52.226;5.200;2024-02-28T02:38:18;51.65;;;23.13;;
26319;SDS011;14024;52.226;5.200;2024-02-28T02:40:43;46.38;;;22.83;;
26319;SDS011;14024;52.226;5.200;2024-02-28T02:43:10;52.30;;;23.15;;
26319;SDS011;14024;52.226;5.200;2024-02-28T02:45:36;49.55;;;23.15;;
26319;SDS011;14024;52.226;5.200;2024-02-28T02:48:01;46.75;;;22.48;;
26319;SDS011;14024;52.226;5.200;2024-02-28T02:50:26;44.58;;;21.17;;
26319;SDS011;14024;52.226;5.200;2024-02-28T02:52:52;50.15;;;22.98;;
26319;SDS011;14024;52.226;5.200;2024-02-28T02:55:17;49.65;;;21.85;;
26319;SDS011;14024;52.226;5.200;2024-02-28T02:57:43;47.53;;;21.45;;
26319;SDS011;14024;52.226;5.200;2024-02-28T03:00:09;42.45;;;19.98;;
26319;SDS011;14024;52.226;5.200;2024-02-28T03:02:35;39.08;;;19.27;;
26319;SDS011;14024;52.226;5.200;2024-02-28T03:05:03;41.50;;;19.52;;
26319;SDS011;14024;52.226;5.200;2024-02-28T03:07:29;42.33;;;18.58;;
26319;SDS011;14024;52.226;5.200;2024-02-28T03:09:54;39.42;;;17.98;;
26319;SDS011;14024;52.226;5.200;2024-02-28T03:12:19;39.95;;;18.77;;
26319;SDS011;14024;52.226;5.200;2024-02-28T03:14:46;36.97;;;17.52;;
26319;SDS011;14024;52.226;5.200;2024-02-28T03:17:13;41.88;;;19.77;;
26319;SDS011;14024;52.226;5.200;2024-02-28T03:19:38;34.30;;;18.05;;
26319;SDS011;14024;52.226;5.200;2024-02-28T03:22:03;33.92;;;17.67;;
26319;SDS011;14024;52.226;5.200;2024-02-28T03:24:29;40.08;;;18.00;;
26319;SDS011;14024;52.226;5.200;2024-02-28T03:26:54;34.55;;;17.40;;
26319;SDS011;14024;52.226;5.200;2024-02-28T03:29:19;35.28;;;16.67;;
26319;SDS011;14024;52.226;5.200;2024-02-28T03:31:45;30.33;;;16.83;;
26319;SDS011;14024;52.226;5.200;2024-02-28T03:34:11;31.73;;;16.88;;
26319;SDS011;14024;52.226;5.200;2024-02-28T03:36:36;29.92;;;15.88;;
26319;SDS011;14024;52.226;5.200;2024-02-28T03:39:01;37.83;;;16.50;;
26319;SDS011;14024;52.226;5.200;2024-02-28T03:41:27;37.28;;;17.00;;
26319;SDS011;14024;52.226;5.200;2024-02-28T03:43:52;35.20;;;17.50;;
26319;SDS011;14024;52.226;5.200;2024-02-28T03:46:18;35.03;;;17.10;;
26319;SDS011;14024;52.226;5.200;2024-02-28T03:48:44;35.58;;;16.48;;
26319;SDS011;14024;52.226;5.200;2024-02-28T03:51:11;30.30;;;15.93;;
26319;SDS011;14024;52.226;5.200;2024-02-28T03:53:36;31.88;;;15.95;;
26319;SDS011;14024;52.226;5.200;2024-02-28T03:56:02;33.90;;;17.90;;
26319;SDS011;14024;52.226;5.200;2024-02-28T03:58:28;32.75;;;17.20;;
26319;SDS011;14024;52.226;5.200;2024-02-28T04:00:53;31.55;;;16.00;;
26319;SDS011;14024;52.226;5.200;2024-02-28T04:03:19;31.58;;;16.52;;
26319;SDS011;14024;52.226;5.200;2024-02-28T04:05:44;41.25;;;18.02;;
26319;SDS011;14024;52.226;5.200;2024-02-28T04:08:11;29.58;;;15.65;;
26319;SDS011;14024;52.226;5.200;2024-02-28T04:10:36;32.85;;;16.58;;
26319;SDS011;14024;52.226;5.200;2024-02-28T04:13:02;31.77;;;16.75;;
26319;SDS011;14024;52.226;5.200;2024-02-28T04:15:30;37.95;;;18.83;;
26319;SDS011;14024;52.226;5.200;2024-02-28T04:17:56;40.38;;;18.33;;
26319;SDS011;14024;52.226;5.200;2024-02-28T04:20:21;38.55;;;18.95;;
26319;SDS011;14024;52.226;5.200;2024-02-28T04:22:47;41.53;;;18.67;;
26319;SDS011;14024;52.226;5.200;2024-02-28T04:25:12;38.47;;;19.48;;
26319;SDS011;14024;52.226;5.200;2024-02-28T04:27:37;35.42;;;17.92;;
26319;SDS011;14024;52.226;5.200;2024-02-28T04:30:04;42.63;;;19.08;;
26319;SDS011;14024;52.226;5.200;2024-02-28T04:32:30;35.35;;;17.33;;
26319;SDS011;14024;52.226;5.200;2024-02-28T04:34:55;38.85;;;18.92;;
26319;SDS011;14024;52.226;5.200;2024-02-28T04:37:21;36.13;;;17.73;;
26319;SDS011;14024;52.226;5.200;2024-02-28T04:39:46;36.60;;;17.88;;
26319;SDS011;14024;52.226;5.200;2024-02-28T04:42:12;39.45;;;18.40;;
26319;SDS011;14024;52.226;5.200;2024-02-28T04:44:38;39.80;;;20.42;;
26319;SDS011;14024;52.226;5.200;2024-02-28T04:47:03;44.55;;;20.20;;
26319;SDS011;14024;52.226;5.200;2024-02-28T04:49:30;43.03;;;18.88;;
26319;SDS011;14024;52.226;5.200;2024-02-28T04:51:56;42.03;;;19.52;;
26319;SDS011;14024;52.226;5.200;2024-02-28T04:54:21;42.33;;;19.55;;
26319;SDS011;14024;52.226;5.200;2024-02-28T04:56:46;36.10;;;18.88;;
26319;SDS011;14024;52.226;5.200;2024-02-28T04:59:12;41.47;;;20.13;;
26319;SDS011;14024;52.226;5.200;2024-02-28T05:01:37;45.40;;;20.73;;
26319;SDS011;14024;52.226;5.200;2024-02-28T05:04:10;40.95;;;20.17;;
26319;SDS011;14024;52.226;5.200;2024-02-28T05:06:36;45.42;;;21.33;;
26319;SDS011;14024;52.226;5.200;2024-02-28T05:09:01;38.00;;;19.45;;
26319;SDS011;14024;52.226;5.200;2024-02-28T05:11:27;38.45;;;20.10;;
26319;SDS011;14024;52.226;5.200;2024-02-28T05:13:52;39.58;;;19.05;;
26319;SDS011;14024;52.226;5.200;2024-02-28T05:16:17;43.80;;;19.85;;
26319;SDS011;14024;52.226;5.200;2024-02-28T05:18:46;38.47;;;19.63;;
26319;SDS011;14024;52.226;5.200;2024-02-28T05:21:11;36.00;;;19.48;;
26319;SDS011;14024;52.226;5.200;2024-02-28T05:23:37;45.40;;;20.70;;
26319;SDS011;14024;52.226;5.200;2024-02-28T05:26:03;40.40;;;19.67;;
26319;SDS011;14024;52.226;5.200;2024-02-28T05:28:30;40.88;;;20.05;;
26319;SDS011;14024;52.226;5.200;2024-02-28T05:30:56;44.28;;;20.70;;
26319;SDS011;14024;52.226;5.200;2024-02-28T05:33:21;41.13;;;20.75;;
26319;SDS011;14024;52.226;5.200;2024-02-28T05:35:47;45.33;;;20.63;;
26319;SDS011;14024;52.226;5.200;2024-02-28T05:38:12;41.67;;;20.10;;
26319;SDS011;14024;52.226;5.200;2024-02-28T05:40:38;41.10;;;18.35;;
26319;SDS011;14024;52.226;5.200;2024-02-28T05:43:04;40.72;;;20.90;;
26319;SDS011;14024;52.226;5.200;2024-02-28T05:45:29;44.78;;;21.52;;
26319;SDS011;14024;52.226;5.200;2024-02-28T05:47:54;42.60;;;20.85;;
26319;SDS011;14024;52.226;5.200;2024-02-28T05:50:20;47.53;;;21.45;;
26319;SDS011;14024;52.226;5.200;2024-02-28T05:52:45;48.63;;;21.85;;
26319;SDS011;14024;52.226;5.200;2024-02-28T05:55:10;44.88;;;22.02;;
26319;SDS011;14024;52.226;5.200;2024-02-28T05:57:36;47.67;;;21.67;;
26319;SDS011;14024;52.226;5.200;2024-02-28T06:00:02;48.88;;;22.33;;
26319;SDS011;14024;52.226;5.200;2024-02-28T06:02:34;48.30;;;22.85;;
26319;SDS011;14024;52.226;5.200;2024-02-28T06:05:00;43.25;;;21.40;;
26319;SDS011;14024;52.226;5.200;2024-02-28T06:07:26;44.63;;;21.00;;
26319;SDS011;14024;52.226;5.200;2024-02-28T06:09:51;47.45;;;21.98;;
26319;SDS011;14024;52.226;5.200;2024-02-28T06:12:16;46.13;;;21.52;;
26319;SDS011;14024;52.226;5.200;2024-02-28T06:14:42;44.60;;;21.60;;
26319;SDS011;14024;52.226;5.200;2024-02-28T06:17:07;43.45;;;21.45;;
26319;SDS011;14024;52.226;5.200;2024-02-28T06:19:34;41.75;;;20.60;;
26319;SDS011;14024;52.226;5.200;2024-02-28T06:21:59;49.60;;;21.98;;
26319;SDS011;14024;52.226;5.200;2024-02-28T06:24:24;43.50;;;20.17;;
26319;SDS011;14024;52.226;5.200;2024-02-28T06:26:50;44.85;;;21.67;;
26319;SDS011;14024;52.226;5.200;2024-02-28T06:29:15;45.72;;;22.30;;
26319;SDS011;14024;52.226;5.200;2024-02-28T06:31:40;41.90;;;22.50;;
26319;SDS011;14024;52.226;5.200;2024-02-28T06:34:05;44.83;;;22.58;;
26319;SDS011;14024;52.226;5.200;2024-02-28T06:36:31;47.30;;;21.80;;
26319;SDS011;14024;52.226;5.200;2024-02-28T06:38:57;45.72;;;22.05;;
26319;SDS011;14024;52.226;5.200;2024-02-28T06:41:23;44.83;;;22.15;;
26319;SDS011;14024;52.226;5.200;2024-02-28T06:43:48;44.30;;;21.52;;
26319;SDS011;14024;52.226;5.200;2024-02-28T06:46:13;45.95;;;22.10;;
26319;SDS011;14024;52.226;5.200;2024-02-28T06:48:39;41.83;;;21.63;;
26319;SDS011;14024;52.226;5.200;2024-02-28T06:51:06;41.67;;;21.60;;
26319;SDS011;14024;52.226;5.200;2024-02-28T06:53:31;44.22;;;22.33;;
26319;SDS011;14024;52.226;5.200;2024-02-28T06:55:57;47.28;;;23.48;;
26319;SDS011;14024;52.226;5.200;2024-02-28T06:58:22;48.80;;;23.92;;
26319;SDS011;14024;52.226;5.200;2024-02-28T07:00:49;52.70;;;24.00;;
26319;SDS011;14024;52.226;5.200;2024-02-28T07:03:15;45.83;;;22.35;;
26319;SDS011;14024;52.226;5.200;2024-02-28T07:05:41;47.38;;;23.02;;
26319;SDS011;14024;52.226;5.200;2024-02-28T07:08:09;47.63;;;22.92;;
26319;SDS011;14024;52.226;5.200;2024-02-28T07:10:37;44.72;;;22.63;;
26319;SDS011;14024;52.226;5.200;2024-02-28T07:13:07;45.40;;;22.75;;
26319;SDS011;14024;52.226;5.200;2024-02-28T07:15:33;47.10;;;22.58;;
26319;SDS011;14024;52.226;5.200;2024-02-28T07:17:58;57.70;;;23.35;;
26319;SDS011;14024;52.226;5.200;2024-02-28T07:20:23;46.72;;;24.17;;
26319;SDS011;14024;52.226;5.200;2024-02-28T07:22:49;42.72;;;22.77;;
26319;SDS011;14024;52.226;5.200;2024-02-28T07:25:15;47.38;;;24.33;;
26319;SDS011;14024;52.226;5.200;2024-02-28T07:27:40;44.58;;;23.83;;
26319;SDS011;14024;52.226;5.200;2024-02-28T07:30:05;46.58;;;24.38;;
26319;SDS011;14024;52.226;5.200;2024-02-28T07:32:31;45.97;;;23.45;;
26319;SDS011;14024;52.226;5.200;2024-02-28T07:35:00;43.45;;;24.00;;
26319;SDS011;14024;52.226;5.200;2024-02-28T07:37:27;46.22;;;24.00;;
26319;SDS011;14024;52.226;5.200;2024-02-28T07:39:52;50.30;;;24.55;;
26319;SDS011;14024;52.226;5.200;2024-02-28T07:42:17;46.40;;;24.63;;
26319;SDS011;14024;52.226;5.200;2024-02-28T07:44:43;50.60;;;23.88;;
26319;SDS011;14024;52.226;5.200;2024-02-28T07:47:08;48.08;;;24.80;;
26319;SDS011;14024;52.226;5.200;2024-02-28T07:49:34;51.08;;;26.60;;
26319;SDS011;14024;52.226;5.200;2024-02-28T07:51:59;50.08;;;25.45;;
26319;SDS011;14024;52.226;5.200;2024-02-28T07:54:24;57.78;;;26.23;;
26319;SDS011;14024;52.226;5.200;2024-02-28T07:56:50;46.83;;;26.98;;
26319;SDS011;14024;52.226;5.200;2024-02-28T07:59:15;49.90;;;26.58;;
26319;SDS011;14024;52.226;5.200;2024-02-28T08:01:40;57.80;;;26.60;;
26319;SDS011;14024;52.226;5.200;2024-02-28T08:04:06;55.65;;;28.42;;
26319;SDS011;14024;52.226;5.200;2024-02-28T08:06:31;51.83;;;26.73;;
26319;SDS011;14024;52.226;5.200;2024-02-28T08:08:58;56.38;;;27.92;;
26319;SDS011;14024;52.226;5.200;2024-02-28T08:11:23;50.22;;;27.00;;
26319;SDS011;14024;52.226;5.200;2024-02-28T08:13:50;53.92;;;28.20;;
26319;SDS011;14024;52.226;5.200;2024-02-28T08:16:15;53.15;;;27.42;;
26319;SDS011;14024;52.226;5.200;2024-02-28T08:18:41;51.75;;;28.00;;
26319;SDS011;14024;52.226;5.200;2024-02-28T08:21:06;53.47;;;27.73;;
26319;SDS011;14024;52.226;5.200;2024-02-28T08:23:31;52.42;;;25.98;;
26319;SDS011;14024;52.226;5.200;2024-02-28T08:25:57;55.20;;;26.00;;
26319;SDS011;14024;52.226;5.200;2024-02-28T08:28:22;59.25;;;26.27;;
26319;SDS011;14024;52.226;5.200;2024-02-28T08:30:48;49.03;;;26.77;;
26319;SDS011;14024;52.226;5.200;2024-02-28T08:33:14;52.08;;;27.13;;
26319;SDS011;14024;52.226;5.200;2024-02-28T08:35:39;54.30;;;28.08;;
26319;SDS011;14024;52.226;5.200;2024-02-28T08:38:04;52.83;;;26.98;;
26319;SDS011;14024;52.226;5.200;2024-02-28T08:40:30;52.63;;;28.73;;
26319;SDS011;14024;52.226;5.200;2024-02-28T08:42:55;52.60;;;28.95;;
26319;SDS011;14024;52.226;5.200;2024-02-28T08:45:24;48.55;;;27.20;;
26319;SDS011;14024;52.226;5.200;2024-02-28T08:47:50;53.78;;;28.25;;
26319;SDS011;14024;52.226;5.200;2024-02-28T08:50:15;49.97;;;26.83;;
26319;SDS011;14024;52.226;5.200;2024-02-28T08:52:40;52.45;;;26.55;;
26319;SDS011;14024;52.226;5.200;2024-02-28T08:55:09;51.80;;;27.83;;
26319;SDS011;14024;52.226;5.200;2024-02-28T08:57:34;52.45;;;27.67;;
26319;SDS011;14024;52.226;5.200;2024-02-28T08:59:59;59.65;;;29.02;;
26319;SDS011;14024;52.226;5.200;2024-02-28T09:02:25;57.22;;;29.67;;
26319;SDS011;14024;52.226;5.200;2024-02-28T09:04:50;51.95;;;29.25;;
26319;SDS011;14024;52.226;5.200;2024-02-28T09:07:18;48.00;;;29.55;;
26319;SDS011;14024;52.226;5.200;2024-02-28T09:09:45;58.00;;;29.15;;
26319;SDS011;14024;52.226;5.200;2024-02-28T09:12:11;49.75;;;28.25;;
26319;SDS011;14024;52.226;5.200;2024-02-28T09:14:36;53.58;;;29.67;;
26319;SDS011;14024;52.226;5.200;2024-02-28T09:17:02;47.75;;;27.30;;
26319;SDS011;14024;52.226;5.200;2024-02-28T09:19:30;48.88;;;27.52;;
26319;SDS011;14024;52.226;5.200;2024-02-28T09:21:56;47.28;;;26.77;;
26319;SDS011;14024;52.226;5.200;2024-02-28T09:24:23;47.60;;;26.88;;
26319;SDS011;14024;52.226;5.200;2024-02-28T09:26:49;51.97;;;27.38;;
26319;SDS011;14024;52.226;5.200;2024-02-28T09:29:15;47.97;;;26.17;;
26319;SDS011;14024;52.226;5.200;2024-02-28T09:31:40;49.28;;;25.65;;
26319;SDS011;14024;52.226;5.200;2024-02-28T09:34:05;42.05;;;26.35;;
26319;SDS011;14024;52.226;5.200;2024-02-28T09:36:40;38.60;;;23.13;;
26319;SDS011;14024;52.226;5.200;2024-02-28T09:39:07;42.57;;;24.97;;
26319;SDS011;14024;52.226;5.200;2024-02-28T09:41:32;37.67;;;22.85;;
26319;SDS011;14024;52.226;5.200;2024-02-28T09:43:57;52.67;;;25.77;;
26319;SDS011;14024;52.226;5.200;2024-02-28T09:46:25;40.45;;;23.88;;
26319;SDS011;14024;52.226;5.200;2024-02-28T09:48:50;43.30;;;25.17;;
26319;SDS011;14024;52.226;5.200;2024-02-28T09:51:17;43.35;;;24.02;;
26319;SDS011;14024;52.226;5.200;2024-02-28T09:53:46;42.55;;;23.40;;
26319;SDS011;14024;52.226;5.200;2024-02-28T09:56:11;41.80;;;24.80;;
26319;SDS011;14024;52.226;5.200;2024-02-28T09:58:38;42.40;;;24.50;;
26319;SDS011;14024;52.226;5.200;2024-02-28T10:01:04;44.40;;;23.90;;
26319;SDS011;14024;52.226;5.200;2024-02-28T10:03:34;43.30;;;24.75;;
26319;SDS011;14024;52.226;5.200;2024-02-28T10:06:02;39.15;;;24.67;;
26319;SDS011;14024;52.226;5.200;2024-02-28T10:08:28;42.92;;;24.83;;
26319;SDS011;14024;52.226;5.200;2024-02-28T10:10:54;46.67;;;25.88;;
26319;SDS011;14024;52.226;5.200;2024-02-28T10:13:21;49.83;;;27.95;;
26319;SDS011;14024;52.226;5.200;2024-02-28T10:15:47;48.47;;;25.15;;
26319;SDS011;14024;52.226;5.200;2024-02-28T10:18:14;47.13;;;26.15;;
26319;SDS011;14024;52.226;5.200;2024-02-28T10:20:39;50.13;;;24.10;;
26319;SDS011;14024;52.226;5.200;2024-02-28T10:23:05;46.33;;;25.90;;
26319;SDS011;14024;52.226;5.200;2024-02-28T10:25:31;41.45;;;24.67;;
26319;SDS011;14024;52.226;5.200;2024-02-28T10:28:00;48.13;;;23.02;;
26319;SDS011;14024;52.226;5.200;2024-02-28T10:30:26;40.97;;;22.75;;
26319;SDS011;14024;52.226;5.200;2024-02-28T10:32:52;38.65;;;23.88;;
26319;SDS011;14024;52.226;5.200;2024-02-28T10:35:18;41.65;;;23.02;;
26319;SDS011;14024;52.226;5.200;2024-02-28T10:37:44;47.80;;;23.90;;
26319;SDS011;14024;52.226;5.200;2024-02-28T10:40:11;40.55;;;23.27;;
26319;SDS011;14024;52.226;5.200;2024-02-28T10:42:37;38.35;;;22.85;;
26319;SDS011;14024;52.226;5.200;2024-02-28T10:45:07;41.25;;;22.52;;
26319;SDS011;14024;52.226;5.200;2024-02-28T10:47:35;39.60;;;23.45;;
26319;SDS011;14024;52.226;5.200;2024-02-28T10:50:03;38.88;;;22.40;;
26319;SDS011;14024;52.226;5.200;2024-02-28T10:52:29;43.03;;;23.13;;
26319;SDS011;14024;52.226;5.200;2024-02-28T10:54:58;44.38;;;23.13;;
26319;SDS011;14024;52.226;5.200;2024-02-28T10:57:25;43.78;;;24.42;;
26319;SDS011;14024;52.226;5.200;2024-02-28T10:59:51;44.10;;;23.02;;
26319;SDS011;14024;52.226;5.200;2024-02-28T11:02:17;47.42;;;23.90;;
26319;SDS011;14024;52.226;5.200;2024-02-28T11:04:43;39.38;;;23.73;;
26319;SDS011;14024;52.226;5.200;2024-02-28T11:07:09;44.30;;;23.80;;
26319;SDS011;14024;52.226;5.200;2024-02-28T11:09:34;44.78;;;24.73;;
26319;SDS011;14024;52.226;5.200;2024-02-28T11:12:00;43.83;;;25.73;;
26319;SDS011;14024;52.226;5.200;2024-02-28T11:14:25;49.95;;;26.42;;
26319;SDS011;14024;52.226;5.200;2024-02-28T11:17:04;43.65;;;25.48;;
26319;SDS011;14024;52.226;5.200;2024-02-28T11:19:31;43.72;;;25.52;;
26319;SDS011;14024;52.226;5.200;2024-02-28T11:22:00;45.28;;;25.38;;
26319;SDS011;14024;52.226;5.200;2024-02-28T11:24:30;46.88;;;26.25;;
26319;SDS011;14024;52.226;5.200;2024-02-28T11:26:57;47.33;;;25.80;;
26319;SDS011;14024;52.226;5.200;2024-02-28T11:29:26;49.63;;;25.77;;
26319;SDS011;14024;52.226;5.200;2024-02-28T11:31:54;54.28;;;27.90;;
26319;SDS011;14024;52.226;5.200;2024-02-28T11:34:21;49.92;;;27.88;;
26319;SDS011;14024;52.226;5.200;2024-02-28T11:36:50;51.25;;;28.90;;
26319;SDS011;14024;52.226;5.200;2024-02-28T11:39:18;51.35;;;29.05;;
26319;SDS011;14024;52.226;5.200;2024-02-28T11:41:43;59.35;;;29.35;;
26319;SDS011;14024;52.226;5.200;2024-02-28T11:44:15;57.33;;;30.10;;
26319;SDS011;14024;52.226;5.200;2024-02-28T11:46:48;56.90;;;30.35;;
26319;SDS011;14024;52.226;5.200;2024-02-28T11:49:14;54.28;;;30.08;;
26319;SDS011;14024;52.226;5.200;2024-02-28T11:51:42;52.38;;;30.45;;
26319;SDS011;14024;52.226;5.200;2024-02-28T11:54:25;51.75;;;29.90;;
26319;SDS011;14024;52.226;5.200;2024-02-28T11:56:50;59.75;;;31.33;;
26319;SDS011;14024;52.226;5.200;2024-02-28T11:59:15;59.83;;;30.77;;
26319;SDS011;14024;52.226;5.200;2024-02-28T12:01:42;53.55;;;29.77;;
26319;SDS011;14024;52.226;5.200;2024-02-28T12:04:11;56.78;;;31.92;;
26319;SDS011;14024;52.226;5.200;2024-02-28T12:06:38;54.88;;;29.90;;
26319;SDS011;14024;52.226;5.200;2024-02-28T12:09:07;56.17;;;30.38;;
26319;SDS011;14024;52.226;5.200;2024-02-28T12:11:39;52.53;;;30.73;;
26319;SDS011;14024;52.226;5.200;2024-02-28T12:14:08;49.60;;;29.25;;
26319;SDS011;14024;52.226;5.200;2024-02-28T12:16:37;56.03;;;29.20;;
26319;SDS011;14024;52.226;5.200;2024-02-28T12:19:07;56.83;;;30.05;;
26319;SDS011;14024;52.226;5.200;2024-02-28T12:21:36;53.08;;;28.35;;
26319;SDS011;14024;52.226;5.200;2024-02-28T12:24:01;48.97;;;27.88;;
26319;SDS011;14024;52.226;5.200;2024-02-28T12:26:27;46.03;;;26.45;;
26319;SDS011;14024;52.226;5.200;2024-02-28T12:28:52;47.95;;;27.13;;
26319;SDS011;14024;52.226;5.200;2024-02-28T12:31:18;48.08;;;25.80;;
26319;SDS011;14024;52.226;5.200;2024-02-28T12:33:43;47.15;;;25.73;;
26319;SDS011;14024;52.226;5.200;2024-02-28T12:36:09;50.60;;;25.60;;
26319;SDS011;14024;52.226;5.200;2024-02-28T12:38:35;50.10;;;25.50;;
26319;SDS011;14024;52.226;5.200;2024-02-28T12:41:00;44.30;;;25.48;;
26319;SDS011;14024;52.226;5.200;2024-02-28T12:43:26;42.80;;;24.63;;
26319;SDS011;14024;52.226;5.200;2024-02-28T12:45:52;43.58;;;23.77;;
26319;SDS011;14024;52.226;5.200;2024-02-28T12:48:18;50.08;;;25.95;;
26319;SDS011;14024;52.226;5.200;2024-02-28T12:50:43;51.53;;;26.08;;
26319;SDS011;14024;52.226;5.200;2024-02-28T12:53:08;44.00;;;23.88;;
26319;SDS011;14024;52.226;5.200;2024-02-28T12:55:34;46.95;;;24.65;;
26319;SDS011;14024;52.226;5.200;2024-02-28T12:57:59;45.20;;;25.20;;
26319;SDS011;14024;52.226;5.200;2024-02-28T13:00:26;46.72;;;24.77;;
26319;SDS011;14024;52.226;5.200;2024-02-28T13:02:51;47.33;;;24.77;;
26319;SDS011;14024;52.226;5.200;2024-02-28T13:05:18;52.38;;;25.13;;
26319;SDS011;14024;52.226;5.200;2024-02-28T13:07:44;47.20;;;24.00;;
26319;SDS011;14024;52.226;5.200;2024-02-28T13:10:10;45.78;;;23.83;;
26319;SDS011;14024;52.226;5.200;2024-02-28T13:12:35;42.13;;;22.95;;
26319;SDS011;14024;52.226;5.200;2024-02-28T13:15:00;40.92;;;24.10;;
26319;SDS011;14024;52.226;5.200;2024-02-28T13:17:26;45.03;;;24.58;;
26319;SDS011;14024;52.226;5.200;2024-02-28T13:19:51;37.38;;;22.80;;
26319;SDS011;14024;52.226;5.200;2024-02-28T13:22:17;43.00;;;23.75;;
26319;SDS011;14024;52.226;5.200;2024-02-28T13:24:42;43.42;;;23.13;;
26319;SDS011;14024;52.226;5.200;2024-02-28T13:27:07;42.53;;;23.77;;
26319;SDS011;14024;52.226;5.200;2024-02-28T13:29:34;39.17;;;23.42;;
26319;SDS011;14024;52.226;5.200;2024-02-28T13:32:00;41.03;;;23.33;;
26319;SDS011;14024;52.226;5.200;2024-02-28T13:34:26;47.67;;;25.40;;
26319;SDS011;14024;52.226;5.200;2024-02-28T13:36:52;41.63;;;23.90;;
26319;SDS011;14024;52.226;5.200;2024-02-28T13:39:17;42.45;;;24.52;;
26319;SDS011;14024;52.226;5.200;2024-02-28T13:41:43;49.00;;;24.95;;
26319;SDS011;14024;52.226;5.200;2024-02-28T13:44:08;42.30;;;23.75;;
26319;SDS011;14024;52.226;5.200;2024-02-28T13:46:34;41.78;;;24.35;;
26319;SDS011;14024;52.226;5.200;2024-02-28T13:49:00;45.60;;;25.08;;
26319;SDS011;14024;52.226;5.200;2024-02-28T13:51:26;45.20;;;26.05;;
26319;SDS011;14024;52.226;5.200;2024-02-28T13:53:51;49.60;;;25.02;;
26319;SDS011;14024;52.226;5.200;2024-02-28T13:56:20;45.45;;;25.10;;
26319;SDS011;14024;52.226;5.200;2024-02-28T13:58:45;45.05;;;26.42;;
26319;SDS011;14024;52.226;5.200;2024-02-28T14:01:11;48.03;;;26.40;;
26319;SDS011;14024;52.226;5.200;2024-02-28T14:03:37;54.20;;;27.38;;
26319;SDS011;14024;52.226;5.200;2024-02-28T14:06:03;50.88;;;26.42;;
26319;SDS011;14024;52.226;5.200;2024-02-28T14:08:30;50.88;;;28.77;;
26319;SDS011;14024;52.226;5.200;2024-02-28T14:10:56;50.20;;;29.40;;
26319;SDS011;14024;52.226;5.200;2024-02-28T14:13:23;57.38;;;30.85;;